sensor_id;sensor_type;location;lat;lon;timestamp;P1;durP1;ratioP1;P2;durP2;ratioP2
7719;SDS011;3902;49.474;8.616;2024-02-23T00:02:04;1.53;;;1.07;;
7719;SDS011;3902;49.474;8.616;2024-02-23T00:04:29;2.80;;;1.20;;
7719;SDS011;3902;49.474;8.616;2024-02-23T00:06:55;1.60;;;1.10;;
7719;SDS011;3902;49.474;8.616;2024-02-23T00:09:21;2.80;;;1.30;;
7719;SDS011;3902;49.474;8.616;2024-02-23T00:11:47;3.00;;;1.40;;
7719;SDS011;3902;49.474;8.616;2024-02-23T00:14:15;3.07;;;1.20;;
7719;SDS011;3902;49.474;8.616;2024-02-23T00:16:41;4.50;;;1.20;;
7719;SDS011;3902;49.474;8.616;2024-02-23T00:19:07;1.70;;;1.10;;
7719;SDS011;3902;49.474;8.616;2024-02-23T00:21:36;2.50;;;1.10;;
7719;SDS011;3902;49.474;8.616;2024-02-23T00:24:03;2.13;;;1.10;;
7719;SDS011;3902;49.474;8.616;2024-02-23T00:26:29;3.07;;;1.10;;
7719;SDS011;3902;49.474;8.616;2024-02-23T00:28:54;3.77;;;1.23;;
7719;SDS011;3902;49.474;8.616;2024-02-23T00:31:21;2.43;;;1.33;;
7719;SDS011;3902;49.474;8.616;2024-02-23T00:33:46;1.93;;;1.00;;
7719;SDS011;3902;49.474;8.616;2024-02-23T00:36:12;1.53;;;0.90;;
7719;SDS011;3902;49.474;8.616;2024-02-23T00:38:38;1.50;;;1.00;;
7719;SDS011;3902;49.474;8.616;2024-02-23T00:41:03;2.90;;;1.20;;
7719;SDS011;3902;49.474;8.616;2024-02-23T00:43:29;1.80;;;1.20;;
7719;SDS011;3902;49.474;8.616;2024-02-23T00:45:54;3.43;;;1.30;;
7719;SDS011;3902;49.474;8.616;2024-02-23T00:48:20;1.60;;;1.20;;
7719;SDS011;3902;49.474;8.616;2024-02-23T00:50:45;4.00;;;1.33;;
7719;SDS011;3902;49.474;8.616;2024-02-23T00:53:11;2.03;;;1.07;;
7719;SDS011;3902;49.474;8.616;2024-02-23T00:55:37;2.03;;;1.23;;
7719;SDS011;3902;49.474;8.616;2024-02-23T00:58:02;2.00;;;1.03;;
7719;SDS011;3902;49.474;8.616;2024-02-23T01:00:28;2.50;;;1.20;;
7719;SDS011;3902;49.474;8.616;2024-02-23T01:02:54;2.40;;;1.00;;
7719;SDS011;3902;49.474;8.616;2024-02-23T01:05:19;2.07;;;1.20;;
7719;SDS011;3902;49.474;8.616;2024-02-23T01:07:46;1.73;;;1.00;;
7719;SDS011;3902;49.474;8.616;2024-02-23T01:10:12;2.20;;;1.23;;
7719;SDS011;3902;49.474;8.616;2024-02-23T01:12:37;2.93;;;1.37;;
7719;SDS011;3902;49.474;8.616;2024-02-23T01:15:03;2.73;;;1.40;;
7719;SDS011;3902;49.474;8.616;2024-02-23T01:17:28;4.47;;;1.50;;
7719;SDS011;3902;49.474;8.616;2024-02-23T01:19:54;1.60;;;1.10;;
7719;SDS011;3902;49.474;8.616;2024-02-23T01:22:19;2.07;;;1.30;;
7719;SDS011;3902;49.474;8.616;2024-02-23T01:24:45;1.67;;;1.10;;
7719;SDS011;3902;49.474;8.616;2024-02-23T01:27:11;2.80;;;1.33;;
7719;SDS011;3902;49.474;8.616;2024-02-23T01:29:36;4.20;;;1.37;;
7719;SDS011;3902;49.474;8.616;2024-02-23T01:32:02;1.87;;;1.10;;
7719;SDS011;3902;49.474;8.616;2024-02-23T01:34:27;3.33;;;1.50;;
7719;SDS011;3902;49.474;8.616;2024-02-23T01:36:53;6.23;;;1.40;;
7719;SDS011;3902;49.474;8.616;2024-02-23T01:39:18;1.67;;;1.00;;
7719;SDS011;3902;49.474;8.616;2024-02-23T01:41:44;2.67;;;1.27;;
7719;SDS011;3902;49.474;8.616;2024-02-23T01:44:11;2.67;;;1.40;;
7719;SDS011;3902;49.474;8.616;2024-02-23T01:46:36;2.23;;;1.33;;
7719;SDS011;3902;49.474;8.616;2024-02-23T01:49:02;3.97;;;1.53;;
7719;SDS011;3902;49.474;8.616;2024-02-23T01:51:30;4.03;;;1.53;;
7719;SDS011;3902;49.474;8.616;2024-02-23T01:53:56;2.00;;;1.10;;
7719;SDS011;3902;49.474;8.616;2024-02-23T01:56:22;1.53;;;1.00;;
7719;SDS011;3902;49.474;8.616;2024-02-23T01:58:48;1.57;;;0.90;;
7719;SDS011;3902;49.474;8.616;2024-02-23T02:01:14;1.93;;;0.97;;
7719;SDS011;3902;49.474;8.616;2024-02-23T02:03:40;1.30;;;0.97;;
7719;SDS011;3902;49.474;8.616;2024-02-23T02:06:06;1.37;;;1.00;;
7719;SDS011;3902;49.474;8.616;2024-02-23T02:08:35;2.90;;;0.93;;
7719;SDS011;3902;49.474;8.616;2024-02-23T02:11:01;2.73;;;1.10;;
7719;SDS011;3902;49.474;8.616;2024-02-23T02:13:30;1.90;;;0.90;;
7719;SDS011;3902;49.474;8.616;2024-02-23T02:15:57;0.70;;;0.70;;
7719;SDS011;3902;49.474;8.616;2024-02-23T02:18:25;1.13;;;0.90;;
7719;SDS011;3902;49.474;8.616;2024-02-23T02:20:51;3.00;;;0.90;;
7719;SDS011;3902;49.474;8.616;2024-02-23T02:23:18;3.93;;;1.00;;
7719;SDS011;3902;49.474;8.616;2024-02-23T02:25:44;3.17;;;1.33;;
7719;SDS011;3902;49.474;8.616;2024-02-23T02:28:10;1.20;;;0.90;;
7719;SDS011;3902;49.474;8.616;2024-02-23T02:30:35;1.40;;;1.03;;
7719;SDS011;3902;49.474;8.616;2024-02-23T02:33:01;2.20;;;1.03;;
7719;SDS011;3902;49.474;8.616;2024-02-23T02:35:26;1.17;;;0.90;;
7719;SDS011;3902;49.474;8.616;2024-02-23T02:37:52;1.73;;;0.83;;
7719;SDS011;3902;49.474;8.616;2024-02-23T02:40:17;1.33;;;1.10;;
7719;SDS011;3902;49.474;8.616;2024-02-23T02:42:43;1.90;;;0.97;;
7719;SDS011;3902;49.474;8.616;2024-02-23T02:45:09;1.23;;;1.00;;
7719;SDS011;3902;49.474;8.616;2024-02-23T02:47:35;1.23;;;0.90;;
7719;SDS011;3902;49.474;8.616;2024-02-23T02:50:01;2.43;;;0.90;;
7719;SDS011;3902;49.474;8.616;2024-02-23T02:52:27;0.80;;;0.80;;
7719;SDS011;3902;49.474;8.616;2024-02-23T02:54:53;1.10;;;0.83;;
7719;SDS011;3902;49.474;8.616;2024-02-23T02:57:19;1.20;;;1.10;;
7719;SDS011;3902;49.474;8.616;2024-02-23T02:59:44;1.50;;;1.00;;
7719;SDS011;3902;49.474;8.616;2024-02-23T03:02:11;1.97;;;1.20;;
7719;SDS011;3902;49.474;8.616;2024-02-23T03:04:36;3.40;;;1.20;;
7719;SDS011;3902;49.474;8.616;2024-02-23T03:07:02;2.20;;;1.13;;
7719;SDS011;3902;49.474;8.616;2024-02-23T03:09:27;2.10;;;1.10;;
7719;SDS011;3902;49.474;8.616;2024-02-23T03:11:53;6.87;;;1.17;;
7719;SDS011;3902;49.474;8.616;2024-02-23T03:14:18;1.87;;;1.10;;
7719;SDS011;3902;49.474;8.616;2024-02-23T03:16:45;1.80;;;0.90;;
7719;SDS011;3902;49.474;8.616;2024-02-23T03:19:12;2.73;;;1.30;;
7719;SDS011;3902;49.474;8.616;2024-02-23T03:21:38;2.20;;;1.17;;
7719;SDS011;3902;49.474;8.616;2024-02-23T03:24:03;1.93;;;1.20;;
7719;SDS011;3902;49.474;8.616;2024-02-23T03:26:29;1.63;;;1.00;;
7719;SDS011;3902;49.474;8.616;2024-02-23T03:28:54;2.60;;;1.07;;
7719;SDS011;3902;49.474;8.616;2024-02-23T03:31:20;1.50;;;1.10;;
7719;SDS011;3902;49.474;8.616;2024-02-23T03:33:45;3.30;;;1.60;;
7719;SDS011;3902;49.474;8.616;2024-02-23T03:36:11;3.10;;;1.30;;
7719;SDS011;3902;49.474;8.616;2024-02-23T03:38:37;1.63;;;1.13;;
7719;SDS011;3902;49.474;8.616;2024-02-23T03:41:02;2.50;;;1.20;;
7719;SDS011;3902;49.474;8.616;2024-02-23T03:43:28;4.17;;;1.40;;
7719;SDS011;3902;49.474;8.616;2024-02-23T03:45:53;1.93;;;1.10;;
7719;SDS011;3902;49.474;8.616;2024-02-23T03:48:19;1.73;;;1.10;;
7719;SDS011;3902;49.474;8.616;2024-02-23T03:50:45;1.67;;;1.30;;
7719;SDS011;3902;49.474;8.616;2024-02-23T03:53:11;1.20;;;1.10;;
7719;SDS011;3902;49.474;8.616;2024-02-23T03:55:36;1.70;;;1.10;;
7719;SDS011;3902;49.474;8.616;2024-02-23T03:58:02;2.90;;;1.67;;
7719;SDS011;3902;49.474;8.616;2024-02-23T04:00:28;4.97;;;1.30;;
7719;SDS011;3902;49.474;8.616;2024-02-23T04:02:53;2.83;;;1.17;;
7719;SDS011;3902;49.474;8.616;2024-02-23T04:05:19;1.70;;;1.27;;
7719;SDS011;3902;49.474;8.616;2024-02-23T04:07:44;1.80;;;1.13;;
7719;SDS011;3902;49.474;8.616;2024-02-23T04:10:10;2.57;;;1.37;;
7719;SDS011;3902;49.474;8.616;2024-02-23T04:12:35;2.00;;;1.20;;
7719;SDS011;3902;49.474;8.616;2024-02-23T04:15:01;3.10;;;1.30;;
7719;SDS011;3902;49.474;8.616;2024-02-23T04:17:26;2.43;;;1.40;;
7719;SDS011;3902;49.474;8.616;2024-02-23T04:19:52;1.93;;;1.17;;
7719;SDS011;3902;49.474;8.616;2024-02-23T04:22:17;1.10;;;1.00;;
7719;SDS011;3902;49.474;8.616;2024-02-23T04:24:43;2.90;;;1.43;;
7719;SDS011;3902;49.474;8.616;2024-02-23T04:27:08;4.53;;;1.30;;
7719;SDS011;3902;49.474;8.616;2024-02-23T04:29:34;2.20;;;1.40;;
7719;SDS011;3902;49.474;8.616;2024-02-23T04:32:00;3.27;;;1.20;;
7719;SDS011;3902;49.474;8.616;2024-02-23T04:34:26;3.10;;;1.40;;
7719;SDS011;3902;49.474;8.616;2024-02-23T04:36:52;2.30;;;1.30;;
7719;SDS011;3902;49.474;8.616;2024-02-23T04:39:18;5.10;;;1.40;;
7719;SDS011;3902;49.474;8.616;2024-02-23T04:41:43;3.37;;;1.23;;
7719;SDS011;3902;49.474;8.616;2024-02-23T04:44:09;1.80;;;1.10;;
7719;SDS011;3902;49.474;8.616;2024-02-23T04:46:34;2.57;;;1.50;;
7719;SDS011;3902;49.474;8.616;2024-02-23T04:49:00;3.23;;;1.40;;
7719;SDS011;3902;49.474;8.616;2024-02-23T04:51:26;3.20;;;1.30;;
7719;SDS011;3902;49.474;8.616;2024-02-23T04:53:52;2.17;;;1.20;;
7719;SDS011;3902;49.474;8.616;2024-02-23T04:56:18;3.03;;;1.20;;
7719;SDS011;3902;49.474;8.616;2024-02-23T04:58:43;3.80;;;1.40;;
7719;SDS011;3902;49.474;8.616;2024-02-23T05:01:09;3.10;;;1.40;;
7719;SDS011;3902;49.474;8.616;2024-02-23T05:03:36;4.37;;;1.20;;
7719;SDS011;3902;49.474;8.616;2024-02-23T05:06:02;3.47;;;1.30;;
7719;SDS011;3902;49.474;8.616;2024-02-23T05:08:28;5.17;;;1.40;;
7719;SDS011;3902;49.474;8.616;2024-02-23T05:10:55;2.53;;;1.20;;
7719;SDS011;3902;49.474;8.616;2024-02-23T05:13:24;4.00;;;1.63;;
7719;SDS011;3902;49.474;8.616;2024-02-23T05:15:49;3.80;;;1.43;;
7719;SDS011;3902;49.474;8.616;2024-02-23T05:18:15;3.87;;;1.30;;
7719;SDS011;3902;49.474;8.616;2024-02-23T05:20:41;3.17;;;1.37;;
7719;SDS011;3902;49.474;8.616;2024-02-23T05:23:06;3.40;;;1.17;;
7719;SDS011;3902;49.474;8.616;2024-02-23T05:25:32;3.47;;;1.53;;
7719;SDS011;3902;49.474;8.616;2024-02-23T05:27:58;1.43;;;1.10;;
7719;SDS011;3902;49.474;8.616;2024-02-23T05:30:23;4.13;;;1.30;;
7719;SDS011;3902;49.474;8.616;2024-02-23T05:32:49;1.60;;;1.30;;
7719;SDS011;3902;49.474;8.616;2024-02-23T05:35:15;3.40;;;1.57;;
7719;SDS011;3902;49.474;8.616;2024-02-23T05:37:41;2.47;;;1.50;;
7719;SDS011;3902;49.474;8.616;2024-02-23T05:40:07;3.90;;;1.20;;
7719;SDS011;3902;49.474;8.616;2024-02-23T05:42:35;2.60;;;1.57;;
7719;SDS011;3902;49.474;8.616;2024-02-23T05:45:01;4.03;;;1.60;;
7719;SDS011;3902;49.474;8.616;2024-02-23T05:47:29;2.50;;;1.30;;
7719;SDS011;3902;49.474;8.616;2024-02-23T05:49:55;3.10;;;1.40;;
7719;SDS011;3902;49.474;8.616;2024-02-23T05:52:21;6.00;;;1.60;;
7719;SDS011;3902;49.474;8.616;2024-02-23T05:54:46;3.53;;;1.50;;
7719;SDS011;3902;49.474;8.616;2024-02-23T05:57:12;3.93;;;1.47;;
7719;SDS011;3902;49.474;8.616;2024-02-23T05:59:37;4.83;;;1.90;;
7719;SDS011;3902;49.474;8.616;2024-02-23T06:02:03;2.20;;;1.40;;
7719;SDS011;3902;49.474;8.616;2024-02-23T06:04:29;5.33;;;2.00;;
7719;SDS011;3902;49.474;8.616;2024-02-23T06:06:54;4.70;;;1.53;;
7719;SDS011;3902;49.474;8.616;2024-02-23T06:09:20;1.90;;;1.43;;
7719;SDS011;3902;49.474;8.616;2024-02-23T06:11:46;4.40;;;1.70;;
7719;SDS011;3902;49.474;8.616;2024-02-23T06:14:11;5.63;;;1.90;;
7719;SDS011;3902;49.474;8.616;2024-02-23T06:16:37;4.07;;;1.50;;
7719;SDS011;3902;49.474;8.616;2024-02-23T06:19:02;3.63;;;1.20;;
7719;SDS011;3902;49.474;8.616;2024-02-23T06:21:28;3.43;;;1.70;;
7719;SDS011;3902;49.474;8.616;2024-02-23T06:23:54;4.20;;;1.40;;
7719;SDS011;3902;49.474;8.616;2024-02-23T06:26:20;3.00;;;1.37;;
7719;SDS011;3902;49.474;8.616;2024-02-23T06:28:46;3.47;;;1.40;;
7719;SDS011;3902;49.474;8.616;2024-02-23T06:31:13;5.60;;;1.60;;
7719;SDS011;3902;49.474;8.616;2024-02-23T06:33:39;4.83;;;1.50;;
7719;SDS011;3902;49.474;8.616;2024-02-23T06:36:05;4.50;;;1.70;;
7719;SDS011;3902;49.474;8.616;2024-02-23T06:38:31;5.20;;;1.70;;
7719;SDS011;3902;49.474;8.616;2024-02-23T06:40:57;4.67;;;1.73;;
7719;SDS011;3902;49.474;8.616;2024-02-23T06:43:22;3.10;;;1.60;;
7719;SDS011;3902;49.474;8.616;2024-02-23T06:45:48;5.10;;;1.60;;
7719;SDS011;3902;49.474;8.616;2024-02-23T06:48:14;3.20;;;1.73;;
7719;SDS011;3902;49.474;8.616;2024-02-23T06:50:39;4.23;;;1.90;;
7719;SDS011;3902;49.474;8.616;2024-02-23T06:53:05;3.33;;;1.60;;
7719;SDS011;3902;49.474;8.616;2024-02-23T06:55:31;3.13;;;1.60;;
7719;SDS011;3902;49.474;8.616;2024-02-23T06:57:58;4.40;;;1.90;;
7719;SDS011;3902;49.474;8.616;2024-02-23T07:00:24;5.50;;;1.90;;
7719;SDS011;3902;49.474;8.616;2024-02-23T07:02:49;5.97;;;1.93;;
7719;SDS011;3902;49.474;8.616;2024-02-23T07:05:15;5.40;;;2.00;;
7719;SDS011;3902;49.474;8.616;2024-02-23T07:07:40;5.53;;;1.90;;
7719;SDS011;3902;49.474;8.616;2024-02-23T07:10:06;3.00;;;1.50;;
7719;SDS011;3902;49.474;8.616;2024-02-23T07:12:33;3.40;;;1.47;;
7719;SDS011;3902;49.474;8.616;2024-02-23T07:14:58;4.60;;;1.50;;
7719;SDS011;3902;49.474;8.616;2024-02-23T07:17:24;2.80;;;1.60;;
7719;SDS011;3902;49.474;8.616;2024-02-23T07:19:49;4.20;;;1.73;;
7719;SDS011;3902;49.474;8.616;2024-02-23T07:22:16;4.90;;;2.00;;
7719;SDS011;3902;49.474;8.616;2024-02-23T07:24:43;6.20;;;1.63;;
7719;SDS011;3902;49.474;8.616;2024-02-23T07:27:09;9.20;;;2.47;;
7719;SDS011;3902;49.474;8.616;2024-02-23T07:29:34;14.37;;;2.47;;
7719;SDS011;3902;49.474;8.616;2024-02-23T07:32:00;4.93;;;1.80;;
7719;SDS011;3902;49.474;8.616;2024-02-23T07:34:26;4.87;;;1.80;;
7719;SDS011;3902;49.474;8.616;2024-02-23T07:36:52;4.80;;;1.53;;
7719;SDS011;3902;49.474;8.616;2024-02-23T07:39:18;6.10;;;1.70;;
7719;SDS011;3902;49.474;8.616;2024-02-23T07:41:43;6.83;;;2.13;;
7719;SDS011;3902;49.474;8.616;2024-02-23T07:44:09;4.10;;;1.30;;
7719;SDS011;3902;49.474;8.616;2024-02-23T07:46:35;5.60;;;1.47;;
7719;SDS011;3902;49.474;8.616;2024-02-23T07:49:00;4.17;;;1.40;;
7719;SDS011;3902;49.474;8.616;2024-02-23T07:51:26;4.40;;;1.30;;
7719;SDS011;3902;49.474;8.616;2024-02-23T07:53:51;3.40;;;1.57;;
7719;SDS011;3902;49.474;8.616;2024-02-23T07:56:17;5.97;;;1.93;;
7719;SDS011;3902;49.474;8.616;2024-02-23T07:58:42;2.83;;;1.30;;
7719;SDS011;3902;49.474;8.616;2024-02-23T08:01:08;7.33;;;1.90;;
7719;SDS011;3902;49.474;8.616;2024-02-23T08:03:33;4.50;;;1.90;;
7719;SDS011;3902;49.474;8.616;2024-02-23T08:05:59;4.43;;;1.80;;
7719;SDS011;3902;49.474;8.616;2024-02-23T08:08:25;5.83;;;1.73;;
7719;SDS011;3902;49.474;8.616;2024-02-23T08:10:52;3.95;;;1.50;;
7719;SDS011;3902;49.474;8.616;2024-02-23T08:13:18;2.90;;;1.43;;
7719;SDS011;3902;49.474;8.616;2024-02-23T08:15:44;3.10;;;1.40;;
7719;SDS011;3902;49.474;8.616;2024-02-23T08:18:10;4.23;;;1.43;;
7719;SDS011;3902;49.474;8.616;2024-02-23T08:20:36;2.10;;;1.43;;
7719;SDS011;3902;49.474;8.616;2024-02-23T08:23:01;2.37;;;1.47;;
7719;SDS011;3902;49.474;8.616;2024-02-23T08:25:27;4.80;;;1.70;;
7719;SDS011;3902;49.474;8.616;2024-02-23T08:27:54;3.50;;;1.50;;
7719;SDS011;3902;49.474;8.616;2024-02-23T08:30:21;2.30;;;1.53;;
7719;SDS011;3902;49.474;8.616;2024-02-23T08:32:46;7.13;;;1.80;;
7719;SDS011;3902;49.474;8.616;2024-02-23T08:35:12;2.83;;;1.40;;
7719;SDS011;3902;49.474;8.616;2024-02-23T08:37:39;3.57;;;1.60;;
7719;SDS011;3902;49.474;8.616;2024-02-23T08:40:07;3.70;;;1.50;;
7719;SDS011;3902;49.474;8.616;2024-02-23T08:42:33;2.60;;;1.50;;
7719;SDS011;3902;49.474;8.616;2024-02-23T08:44:58;4.33;;;1.57;;
7719;SDS011;3902;49.474;8.616;2024-02-23T08:47:24;2.67;;;1.30;;
7719;SDS011;3902;49.474;8.616;2024-02-23T08:49:52;5.43;;;1.70;;
7719;SDS011;3902;49.474;8.616;2024-02-23T08:52:18;3.53;;;1.50;;
7719;SDS011;3902;49.474;8.616;2024-02-23T08:54:44;3.43;;;1.60;;
7719;SDS011;3902;49.474;8.616;2024-02-23T08:57:09;5.93;;;1.67;;
7719;SDS011;3902;49.474;8.616;2024-02-23T08:59:35;3.53;;;1.70;;
7719;SDS011;3902;49.474;8.616;2024-02-23T09:02:00;3.30;;;1.57;;
7719;SDS011;3902;49.474;8.616;2024-02-23T09:04:26;3.93;;;1.60;;
7719;SDS011;3902;49.474;8.616;2024-02-23T09:06:51;3.93;;;1.80;;
7719;SDS011;3902;49.474;8.616;2024-02-23T09:09:19;5.80;;;1.73;;
7719;SDS011;3902;49.474;8.616;2024-02-23T09:11:44;3.47;;;1.50;;
7719;SDS011;3902;49.474;8.616;2024-02-23T09:14:10;5.47;;;1.90;;
7719;SDS011;3902;49.474;8.616;2024-02-23T09:16:35;3.67;;;1.50;;
7719;SDS011;3902;49.474;8.616;2024-02-23T09:19:01;3.97;;;1.60;;
7719;SDS011;3902;49.474;8.616;2024-02-23T09:21:26;6.70;;;2.77;;
7719;SDS011;3902;49.474;8.616;2024-02-23T09:23:52;12.73;;;2.20;;
7719;SDS011;3902;49.474;8.616;2024-02-23T09:26:17;5.10;;;2.37;;
7719;SDS011;3902;49.474;8.616;2024-02-23T09:28:43;5.17;;;1.73;;
7719;SDS011;3902;49.474;8.616;2024-02-23T09:31:10;3.07;;;1.50;;
7719;SDS011;3902;49.474;8.616;2024-02-23T09:33:36;5.10;;;1.57;;
7719;SDS011;3902;49.474;8.616;2024-02-23T09:36:01;3.23;;;1.30;;
7719;SDS011;3902;49.474;8.616;2024-02-23T09:38:27;3.60;;;1.73;;
7719;SDS011;3902;49.474;8.616;2024-02-23T09:40:53;4.70;;;2.03;;
7719;SDS011;3902;49.474;8.616;2024-02-23T09:43:20;5.73;;;1.73;;
7719;SDS011;3902;49.474;8.616;2024-02-23T09:45:47;4.60;;;2.07;;
7719;SDS011;3902;49.474;8.616;2024-02-23T09:48:17;3.73;;;1.53;;
7719;SDS011;3902;49.474;8.616;2024-02-23T09:50:45;7.53;;;2.07;;
7719;SDS011;3902;49.474;8.616;2024-02-23T09:53:13;8.73;;;1.77;;
7719;SDS011;3902;49.474;8.616;2024-02-23T09:55:39;5.23;;;2.17;;
7719;SDS011;3902;49.474;8.616;2024-02-23T09:58:05;6.10;;;1.87;;
7719;SDS011;3902;49.474;8.616;2024-02-23T10:00:33;6.27;;;1.90;;
7719;SDS011;3902;49.474;8.616;2024-02-23T10:03:02;5.83;;;1.70;;
7719;SDS011;3902;49.474;8.616;2024-02-23T10:05:29;3.07;;;1.90;;
7719;SDS011;3902;49.474;8.616;2024-02-23T10:07:58;2.70;;;1.40;;
7719;SDS011;3902;49.474;8.616;2024-02-23T10:10:33;8.73;;;2.50;;
7719;SDS011;3902;49.474;8.616;2024-02-23T10:12:59;5.17;;;1.73;;
7719;SDS011;3902;49.474;8.616;2024-02-23T10:15:26;4.57;;;2.07;;
7719;SDS011;3902;49.474;8.616;2024-02-23T10:17:53;3.60;;;1.87;;
7719;SDS011;3902;49.474;8.616;2024-02-23T10:20:19;5.83;;;2.20;;
7719;SDS011;3902;49.474;8.616;2024-02-23T10:22:45;2.40;;;1.93;;
7719;SDS011;3902;49.474;8.616;2024-02-23T10:25:11;2.40;;;1.43;;
7719;SDS011;3902;49.474;8.616;2024-02-23T10:27:37;5.70;;;1.80;;
7719;SDS011;3902;49.474;8.616;2024-02-23T10:30:02;3.77;;;1.97;;
7719;SDS011;3902;49.474;8.616;2024-02-23T10:32:29;3.80;;;1.60;;
7719;SDS011;3902;49.474;8.616;2024-02-23T10:34:55;10.70;;;2.80;;
7719;SDS011;3902;49.474;8.616;2024-02-23T10:37:25;6.90;;;1.70;;
7719;SDS011;3902;49.474;8.616;2024-02-23T10:39:53;7.00;;;2.23;;
7719;SDS011;3902;49.474;8.616;2024-02-23T10:42:24;5.00;;;1.70;;
7719;SDS011;3902;49.474;8.616;2024-02-23T10:44:56;4.30;;;1.63;;
7719;SDS011;3902;49.474;8.616;2024-02-23T10:47:26;4.30;;;1.80;;
7719;SDS011;3902;49.474;8.616;2024-02-23T10:49:53;7.73;;;2.13;;
7719;SDS011;3902;49.474;8.616;2024-02-23T10:52:21;2.83;;;1.43;;
7719;SDS011;3902;49.474;8.616;2024-02-23T10:54:51;6.70;;;2.20;;
7719;SDS011;3902;49.474;8.616;2024-02-23T10:57:18;4.23;;;1.70;;
7719;SDS011;3902;49.474;8.616;2024-02-23T10:59:47;6.10;;;2.03;;
7719;SDS011;3902;49.474;8.616;2024-02-23T11:02:14;9.23;;;1.80;;
7719;SDS011;3902;49.474;8.616;2024-02-23T11:04:45;3.50;;;1.70;;
7719;SDS011;3902;49.474;8.616;2024-02-23T11:07:15;5.50;;;2.07;;
7719;SDS011;3902;49.474;8.616;2024-02-23T11:09:43;2.97;;;1.43;;
7719;SDS011;3902;49.474;8.616;2024-02-23T11:12:21;3.37;;;1.77;;
7719;SDS011;3902;49.474;8.616;2024-02-23T11:14:49;4.30;;;1.80;;
7719;SDS011;3902;49.474;8.616;2024-02-23T11:17:19;6.07;;;2.10;;
7719;SDS011;3902;49.474;8.616;2024-02-23T11:19:50;5.40;;;1.67;;
7719;SDS011;3902;49.474;8.616;2024-02-23T11:22:23;3.90;;;1.60;;
7719;SDS011;3902;49.474;8.616;2024-02-23T11:24:50;4.87;;;2.00;;
7719;SDS011;3902;49.474;8.616;2024-02-23T11:27:15;5.20;;;1.80;;
7719;SDS011;3902;49.474;8.616;2024-02-23T11:29:43;3.50;;;1.80;;
7719;SDS011;3902;49.474;8.616;2024-02-23T11:32:13;5.13;;;2.10;;
7719;SDS011;3902;49.474;8.616;2024-02-23T11:34:52;6.77;;;2.13;;
7719;SDS011;3902;49.474;8.616;2024-02-23T11:37:20;3.77;;;1.40;;
7719;SDS011;3902;49.474;8.616;2024-02-23T11:39:46;4.60;;;1.80;;
7719;SDS011;3902;49.474;8.616;2024-02-23T11:42:11;5.70;;;2.20;;
7719;SDS011;3902;49.474;8.616;2024-02-23T11:44:37;4.77;;;1.90;;
7719;SDS011;3902;49.474;8.616;2024-02-23T11:47:03;4.37;;;1.53;;
7719;SDS011;3902;49.474;8.616;2024-02-23T11:49:29;4.23;;;1.87;;
7719;SDS011;3902;49.474;8.616;2024-02-23T11:51:55;2.93;;;1.90;;
7719;SDS011;3902;49.474;8.616;2024-02-23T11:54:21;6.10;;;2.20;;
7719;SDS011;3902;49.474;8.616;2024-02-23T11:56:47;4.37;;;1.77;;
7719;SDS011;3902;49.474;8.616;2024-02-23T11:59:14;3.30;;;1.80;;
7719;SDS011;3902;49.474;8.616;2024-02-23T12:01:40;3.33;;;1.57;;
7719;SDS011;3902;49.474;8.616;2024-02-23T12:04:06;4.80;;;1.80;;
7719;SDS011;3902;49.474;8.616;2024-02-23T12:06:32;3.97;;;1.60;;
7719;SDS011;3902;49.474;8.616;2024-02-23T12:08:58;3.73;;;1.83;;
7719;SDS011;3902;49.474;8.616;2024-02-23T12:11:25;4.13;;;1.90;;
7719;SDS011;3902;49.474;8.616;2024-02-23T12:13:52;5.17;;;2.50;;
7719;SDS011;3902;49.474;8.616;2024-02-23T12:16:18;4.07;;;1.90;;
7719;SDS011;3902;49.474;8.616;2024-02-23T12:18:45;2.17;;;1.60;;
7719;SDS011;3902;49.474;8.616;2024-02-23T12:21:18;7.40;;;1.80;;
7719;SDS011;3902;49.474;8.616;2024-02-23T12:23:44;4.07;;;1.57;;
7719;SDS011;3902;49.474;8.616;2024-02-23T12:26:12;4.07;;;1.60;;
7719;SDS011;3902;49.474;8.616;2024-02-23T12:28:39;6.30;;;2.33;;
7719;SDS011;3902;49.474;8.616;2024-02-23T12:31:05;4.37;;;1.50;;
7719;SDS011;3902;49.474;8.616;2024-02-23T12:33:31;4.87;;;2.10;;
7719;SDS011;3902;49.474;8.616;2024-02-23T12:36:01;3.40;;;1.60;;
7719;SDS011;3902;49.474;8.616;2024-02-23T12:38:28;3.70;;;1.63;;
7719;SDS011;3902;49.474;8.616;2024-02-23T12:40:54;4.17;;;2.20;;
7719;SDS011;3902;49.474;8.616;2024-02-23T12:43:20;5.90;;;2.03;;
7719;SDS011;3902;49.474;8.616;2024-02-23T12:45:46;8.13;;;2.13;;
7719;SDS011;3902;49.474;8.616;2024-02-23T12:48:14;5.00;;;1.93;;
7719;SDS011;3902;49.474;8.616;2024-02-23T12:50:40;2.90;;;1.90;;
7719;SDS011;3902;49.474;8.616;2024-02-23T12:53:07;4.20;;;2.00;;
7719;SDS011;3902;49.474;8.616;2024-02-23T12:55:33;4.20;;;2.20;;
7719;SDS011;3902;49.474;8.616;2024-02-23T12:58:01;4.67;;;1.77;;
7719;SDS011;3902;49.474;8.616;2024-02-23T13:00:27;3.57;;;1.80;;
7719;SDS011;3902;49.474;8.616;2024-02-23T13:02:53;3.00;;;1.60;;
7719;SDS011;3902;49.474;8.616;2024-02-23T13:05:19;3.80;;;1.90;;
7719;SDS011;3902;49.474;8.616;2024-02-23T13:07:44;4.40;;;1.60;;
7719;SDS011;3902;49.474;8.616;2024-02-23T13:10:11;4.73;;;2.10;;
7719;SDS011;3902;49.474;8.616;2024-02-23T13:12:36;3.80;;;1.77;;
7719;SDS011;3902;49.474;8.616;2024-02-23T13:15:02;4.47;;;1.70;;
7719;SDS011;3902;49.474;8.616;2024-02-23T13:17:28;3.17;;;1.73;;
7719;SDS011;3902;49.474;8.616;2024-02-23T13:19:53;3.00;;;1.77;;
7719;SDS011;3902;49.474;8.616;2024-02-23T13:22:19;5.40;;;1.57;;
7719;SDS011;3902;49.474;8.616;2024-02-23T13:24:44;5.80;;;1.60;;
7719;SDS011;3902;49.474;8.616;2024-02-23T13:27:10;6.73;;;1.60;;
7719;SDS011;3902;49.474;8.616;2024-02-23T13:29:35;5.87;;;1.90;;
7719;SDS011;3902;49.474;8.616;2024-02-23T13:32:01;5.90;;;2.13;;
7719;SDS011;3902;49.474;8.616;2024-02-23T13:34:27;2.63;;;1.50;;
7719;SDS011;3902;49.474;8.616;2024-02-23T13:36:52;4.60;;;1.70;;
7719;SDS011;3902;49.474;8.616;2024-02-23T13:39:18;7.43;;;1.60;;
7719;SDS011;3902;49.474;8.616;2024-02-23T13:41:44;2.73;;;1.60;;
7719;SDS011;3902;49.474;8.616;2024-02-23T13:44:09;4.57;;;2.00;;
7719;SDS011;3902;49.474;8.616;2024-02-23T13:46:35;4.77;;;2.10;;
7719;SDS011;3902;49.474;8.616;2024-02-23T13:49:04;3.40;;;1.90;;
7719;SDS011;3902;49.474;8.616;2024-02-23T13:51:31;3.73;;;1.70;;
7719;SDS011;3902;49.474;8.616;2024-02-23T13:53:57;3.87;;;1.63;;
7719;SDS011;3902;49.474;8.616;2024-02-23T13:56:23;5.63;;;1.83;;
7719;SDS011;3902;49.474;8.616;2024-02-23T13:58:48;2.83;;;1.67;;
7719;SDS011;3902;49.474;8.616;2024-02-23T14:01:14;7.70;;;1.97;;
7719;SDS011;3902;49.474;8.616;2024-02-23T14:03:40;2.70;;;1.80;;
7719;SDS011;3902;49.474;8.616;2024-02-23T14:06:06;4.17;;;2.03;;
7719;SDS011;3902;49.474;8.616;2024-02-23T14:08:31;6.13;;;1.80;;
7719;SDS011;3902;49.474;8.616;2024-02-23T14:10:59;2.30;;;1.50;;
7719;SDS011;3902;49.474;8.616;2024-02-23T14:13:25;2.23;;;1.67;;
7719;SDS011;3902;49.474;8.616;2024-02-23T14:15:50;6.83;;;2.43;;
7719;SDS011;3902;49.474;8.616;2024-02-23T14:18:16;4.33;;;1.80;;
7719;SDS011;3902;49.474;8.616;2024-02-23T14:20:41;4.50;;;1.67;;
7719;SDS011;3902;49.474;8.616;2024-02-23T14:23:07;4.47;;;1.90;;
7719;SDS011;3902;49.474;8.616;2024-02-23T14:25:33;3.13;;;1.63;;
7719;SDS011;3902;49.474;8.616;2024-02-23T14:27:58;5.20;;;1.70;;
7719;SDS011;3902;49.474;8.616;2024-02-23T14:30:24;4.30;;;1.57;;
7719;SDS011;3902;49.474;8.616;2024-02-23T14:32:50;3.43;;;1.40;;
7719;SDS011;3902;49.474;8.616;2024-02-23T14:35:15;4.57;;;1.70;;
7719;SDS011;3902;49.474;8.616;2024-02-23T14:37:41;3.90;;;1.53;;
7719;SDS011;3902;49.474;8.616;2024-02-23T14:40:06;2.57;;;1.60;;
7719;SDS011;3902;49.474;8.616;2024-02-23T14:42:32;4.70;;;2.20;;
7719;SDS011;3902;49.474;8.616;2024-02-23T14:44:58;3.50;;;1.80;;
7719;SDS011;3902;49.474;8.616;2024-02-23T14:47:24;4.20;;;2.03;;
7719;SDS011;3902;49.474;8.616;2024-02-23T14:49:49;3.40;;;1.73;;
7719;SDS011;3902;49.474;8.616;2024-02-23T14:52:15;5.37;;;1.53;;
7719;SDS011;3902;49.474;8.616;2024-02-23T14:54:41;5.83;;;2.77;;
7719;SDS011;3902;49.474;8.616;2024-02-23T14:57:06;7.63;;;1.80;;
7719;SDS011;3902;49.474;8.616;2024-02-23T14:59:32;5.03;;;1.93;;
7719;SDS011;3902;49.474;8.616;2024-02-23T15:02:04;3.60;;;2.07;;
7719;SDS011;3902;49.474;8.616;2024-02-23T15:04:31;3.87;;;1.87;;
7719;SDS011;3902;49.474;8.616;2024-02-23T15:06:57;5.10;;;2.30;;
7719;SDS011;3902;49.474;8.616;2024-02-23T15:09:22;3.50;;;1.77;;